Time;durP1;ratioP1;P1;durP2;ratioP2;P2;SDS_P1;SDS_P2;PMS_P1;PMS_P2;Temp;Humidity;BMP_temperature;BMP_pressure;BME280_temperature;BME280_humidity;BME280_pressure;Samples;Min_cycle;Max_cycle;Signal;HPM_P1;HPM_P2
2024/04/18 00:00:55;;;;;;;;;;;3.70;1.00;;;;;;5456251;26;19935;-76
2024/04/18 00:03:23;;;;;;;;;;;3.60;1.00;;;;;;5456310;26;19924;-75
2024/04/18 00:05:49;;;;;;;;;;;3.60;1.00;;;;;;5456295;26;19952;-76
2024/04/18 00:08:15;;;;;;;;;;;3.60;1.00;;;;;;5456443;26;19932;-79
2024/04/18 00:10:43;;;;;;;;;;;3.50;1.00;;;;;;5456247;26;19965;-79
2024/04/18 00:13:09;;;;;;;;;;;3.60;1.00;;;;;;5456514;26;19924;-80
2024/04/18 00:15:34;;;;;;;;;;;3.50;1.00;;;;;;5452138;26;19932;-80
2024/04/18 00:18:00;;;;;;;;;;;3.50;1.00;;;;;;5441310;26;19933;-79
2024/04/18 00:20:26;;;;;;;;;;;3.50;1.00;;;;;;5447526;26;19925;-80
2024/04/18 00:22:52;;;;;;;;;;;3.60;1.00;;;;;;5455141;26;19930;-79
2024/04/18 00:25:18;;;;;;;;;;;3.60;1.00;;;;;;5459586;26;19924;-80
2024/04/18 00:27:59;;;;;;;;;;;3.60;1.00;;;;;;5457182;26;19931;-80
2024/04/18 00:30:29;;;;;;;;;;;3.70;1.00;;;;;;5466993;26;19923;-79
2024/04/18 00:32:59;;;;;;;;;;;3.70;1.00;;;;;;5492991;26;19924;-79
2024/04/18 00:35:25;;;;;;;;;;;3.70;1.00;;;;;;5460873;26;19931;-79
2024/04/18 00:37:53;;;;;;;;;;;3.70;1.00;;;;;;5456807;26;19924;-79
2024/04/18 00:40:19;;;;;;;;;;;3.70;1.00;;;;;;5437277;26;19925;-79
2024/04/18 00:42:59;;;;;;;;;;;3.70;1.00;;;;;;5423008;26;19925;-79
2024/04/18 00:45:26;;;;;;;;;;;3.80;1.00;;;;;;5454570;26;19931;-79
2024/04/18 00:47:53;;;;;;;;;;;3.80;1.00;;;;;;5454570;26;19935;-80
2024/04/18 00:50:19;;;;;;;;;;;3.70;1.00;;;;;;5456361;26;20348;-79
2024/04/18 00:52:47;;;;;;;;;;;3.70;1.00;;;;;;5456672;26;19956;-79
2024/04/18 00:55:13;;;;;;;;;;;3.60;1.00;;;;;;5456365;26;19939;-80
2024/04/18 00:57:39;;;;;;;;;;;3.60;1.00;;;;;;5456124;26;19936;-80
2024/04/18 01:00:08;;;;;;;;;;;3.60;1.00;;;;;;5459855;26;20353;-79
2024/04/18 01:02:36;;;;;;;;;;;3.70;1.00;;;;;;5452963;26;19949;-79
2024/04/18 01:05:02;;;;;;;;;;;3.60;1.00;;;;;;5456409;26;19953;-79
2024/04/18 01:07:29;;;;;;;;;;;3.50;1.00;;;;;;5456392;26;19931;-79
2024/04/18 01:09:55;;;;;;;;;;;3.60;1.00;;;;;;5458001;26;19931;-79
2024/04/18 01:12:21;;;;;;;;;;;3.60;1.00;;;;;;5431207;26;19949;-79
2024/04/18 01:14:46;;;;;;;;;;;3.60;1.00;;;;;;5455947;26;19964;-80
2024/04/18 01:17:12;;;;;;;;;;;3.60;1.00;;;;;;5456291;26;19932;-80
2024/04/18 01:19:41;;;;;;;;;;;3.70;1.00;;;;;;5455255;26;20056;-80
2024/04/18 01:22:07;;;;;;;;;;;3.80;1.00;;;;;;5454849;26;19924;-80
2024/04/18 01:24:33;;;;;;;;;;;3.80;1.00;;;;;;5455373;26;19931;-76
2024/04/18 01:26:58;;;;;;;;;;;3.70;1.00;;;;;;5467105;26;19924;-76
2024/04/18 01:29:24;;;;;;;;;;;3.80;1.00;;;;;;5455253;26;19960;-76
2024/04/18 01:31:49;;;;;;;;;;;3.80;1.00;;;;;;5455092;26;19958;-76
2024/04/18 01:34:15;;;;;;;;;;;3.80;1.00;;;;;;5432253;26;19932;-76
2024/04/18 01:36:41;;;;;;;;;;;3.80;1.00;;;;;;5452720;26;19932;-76
2024/04/18 01:39:06;;;;;;;;;;;3.80;1.00;;;;;;5453620;26;19924;-80
2024/04/18 01:41:32;;;;;;;;;;;3.80;1.00;;;;;;5443559;26;19924;-80
2024/04/18 01:43:57;;;;;;;;;;;3.70;1.00;;;;;;5427896;26;19932;-79
2024/04/18 01:46:24;;;;;;;;;;;3.70;1.00;;;;;;5454604;26;19937;-80
2024/04/18 01:48:50;;;;;;;;;;;3.70;1.00;;;;;;5455014;26;19966;-79
2024/04/18 01:51:16;;;;;;;;;;;3.70;1.00;;;;;;5458601;26;19925;-80
2024/04/18 01:53:41;;;;;;;;;;;3.70;1.00;;;;;;5491273;26;19936;-76
2024/04/18 01:56:07;;;;;;;;;;;3.50;1.00;;;;;;5456308;26;19932;-76
2024/04/18 01:58:41;;;;;;;;;;;3.50;1.00;;;;;;5454613;26;19924;-76
2024/04/18 02:01:07;;;;;;;;;;;3.50;1.00;;;;;;5454180;26;19931;-76
2024/04/18 02:03:32;;;;;;;;;;;3.40;1.00;;;;;;5454896;26;19932;-76
2024/04/18 02:05:58;;;;;;;;;;;3.40;1.00;;;;;;5454377;26;19935;-76
2024/04/18 02:08:24;;;;;;;;;;;3.40;1.00;;;;;;5454726;26;19985;-76
2024/04/18 02:11:00;;;;;;;;;;;3.50;1.00;;;;;;5463313;26;19997;-76
2024/04/18 02:13:25;;;;;;;;;;;3.50;1.00;;;;;;5454315;26;19993;-76
2024/04/18 02:15:53;;;;;;;;;;;3.60;1.00;;;;;;5454443;26;19938;-75
2024/04/18 02:18:19;;;;;;;;;;;3.70;1.00;;;;;;5454370;26;19965;-76
2024/04/18 02:20:45;;;;;;;;;;;3.70;1.00;;;;;;5453784;26;19925;-76
2024/04/18 02:23:10;;;;;;;;;;;3.80;1.00;;;;;;5452688;26;19932;-76
2024/04/18 02:25:37;;;;;;;;;;;3.80;1.00;;;;;;5454117;26;20352;-76
2024/04/18 02:28:03;;;;;;;;;;;3.80;1.00;;;;;;5441569;26;20486;-75
2024/04/18 02:30:28;;;;;;;;;;;4.00;1.00;;;;;;5444322;26;19936;-76
2024/04/18 02:32:54;;;;;;;;;;;4.00;1.00;;;;;;5480122;26;19932;-76
2024/04/18 02:35:20;;;;;;;;;;;4.10;1.00;;;;;;5454013;26;19969;-76
2024/04/18 02:37:47;;;;;;;;;;;4.20;1.00;;;;;;5453926;26;19930;-76
2024/04/18 02:40:17;;;;;;;;;;;4.20;1.00;;;;;;5468555;26;19924;-76
2024/04/18 02:42:43;;;;;;;;;;;4.40;1.00;;;;;;5431208;26;19924;-76
2024/04/18 02:45:09;;;;;;;;;;;4.40;1.00;;;;;;5454094;26;19993;-76
2024/04/18 02:47:34;;;;;;;;;;;4.40;1.00;;;;;;5453717;26;19924;-76
2024/04/18 02:50:11;;;;;;;;;;;4.50;1.00;;;;;;5454349;26;19932;-76
2024/04/18 02:52:37;;;;;;;;;;;4.60;1.00;;;;;;5429538;26;19932;-76
2024/04/18 02:55:03;;;;;;;;;;;4.60;1.00;;;;;;5454079;26;19932;-76
2024/04/18 02:57:29;;;;;;;;;;;4.70;1.00;;;;;;5453757;26;19937;-76
2024/04/18 02:59:55;;;;;;;;;;;4.80;1.00;;;;;;5453624;26;19974;-76
2024/04/18 03:02:24;;;;;;;;;;;4.80;1.00;;;;;;5453513;26;19936;-76
2024/04/18 03:04:53;;;;;;;;;;;4.90;1.00;;;;;;5446308;26;19932;-76
2024/04/18 03:07:19;;;;;;;;;;;5.00;1.00;;;;;;5453618;26;19992;-76
2024/04/18 03:09:45;;;;;;;;;;;5.00;1.00;;;;;;5454789;26;19932;-80
2024/04/18 03:12:11;;;;;;;;;;;5.00;1.00;;;;;;5489808;26;19930;-79
2024/04/18 03:14:36;;;;;;;;;;;5.00;1.00;;;;;;5489734;26;19924;-79
2024/04/18 03:17:02;;;;;;;;;;;5.00;1.00;;;;;;5487769;26;19923;-80
2024/04/18 03:19:29;;;;;;;;;;;5.00;1.00;;;;;;5489479;26;19936;-80
2024/04/18 03:22:11;;;;;;;;;;;4.90;1.00;;;;;;5441319;26;19937;-80
2024/04/18 03:24:37;;;;;;;;;;;4.90;1.00;;;;;;5426968;26;19925;-76
2024/04/18 03:27:03;;;;;;;;;;;5.00;1.00;;;;;;5469032;26;20245;-76
2024/04/18 03:29:28;;;;;;;;;;;5.00;1.00;;;;;;5453252;26;19932;-76
2024/04/18 03:31:54;;;;;;;;;;;5.00;1.00;;;;;;5452810;26;19924;-76
2024/04/18 03:34:20;;;;;;;;;;;4.90;1.00;;;;;;5452868;26;19925;-76
2024/04/18 03:36:51;;;;;;;;;;;4.90;1.00;;;;;;5453007;26;19931;-76
2024/04/18 03:39:18;;;;;;;;;;;4.90;1.00;;;;;;5453073;26;19960;-76
2024/04/18 03:41:48;;;;;;;;;;;4.90;1.00;;;;;;5459142;26;19925;-76
2024/04/18 03:44:23;;;;;;;;;;;4.80;1.00;;;;;;5452832;26;19931;-76
2024/04/18 03:46:53;;;;;;;;;;;4.80;1.00;;;;;;5452718;26;19992;-76
2024/04/18 03:49:19;;;;;;;;;;;4.80;1.00;;;;;;5454511;26;19932;-76
2024/04/18 03:51:45;;;;;;;;;;;4.80;1.00;;;;;;5416650;26;19964;-76
2024/04/18 03:54:20;;;;;;;;;;;4.70;1.00;;;;;;5417333;26;19940;-80
2024/04/18 03:56:45;;;;;;;;;;;4.70;1.00;;;;;;5415130;26;19932;-79
2024/04/18 03:59:11;;;;;;;;;;;4.60;1.00;;;;;;5442484;26;19936;-80
2024/04/18 04:01:37;;;;;;;;;;;4.60;1.00;;;;;;5458791;26;19952;-79
2024/04/18 04:04:23;;;;;;;;;;;4.60;1.00;;;;;;5453630;26;19936;-79
2024/04/18 04:06:53;;;;;;;;;;;4.50;1.00;;;;;;5440593;26;19932;-80
2024/04/18 04:09:29;;;;;;;;;;;4.50;1.00;;;;;;5456292;26;19924;-76
2024/04/18 04:11:55;;;;;;;;;;;4.50;1.00;;;;;;5486556;26;19931;-76
2024/04/18 04:14:29;;;;;;;;;;;4.50;1.00;;;;;;5457974;26;20001;-76
2024/04/18 04:16:55;;;;;;;;;;;4.50;1.00;;;;;;5467484;26;19925;-76
2024/04/18 04:19:21;;;;;;;;;;;4.50;1.00;;;;;;5431844;26;19936;-76
2024/04/18 04:21:46;;;;;;;;;;;4.60;1.00;;;;;;5450866;26;19991;-76
2024/04/18 04:24:12;;;;;;;;;;;4.60;1.00;;;;;;5465485;26;19988;-77
2024/04/18 04:26:38;;;;;;;;;;;4.70;1.00;;;;;;5468487;26;19924;-77
2024/04/18 04:29:06;;;;;;;;;;;4.70;1.00;;;;;;5455757;26;19932;-76
2024/04/18 04:31:36;;;;;;;;;;;4.70;1.00;;;;;;5443600;26;19992;-76
2024/04/18 04:34:02;;;;;;;;;;;4.80;1.00;;;;;;5459038;26;19930;-76
2024/04/18 04:36:36;;;;;;;;;;;4.90;1.00;;;;;;5453579;26;20384;-76
2024/04/18 04:39:01;;;;;;;;;;;5.00;1.00;;;;;;5470814;26;19924;-80
2024/04/18 04:41:35;;;;;;;;;;;5.00;1.00;;;;;;5465112;26;19961;-77
2024/04/18 04:44:01;;;;;;;;;;;5.10;1.00;;;;;;5467911;26;19924;-80
2024/04/18 04:46:27;;;;;;;;;;;5.10;1.00;;;;;;5455682;26;19952;-79
2024/04/18 04:48:54;;;;;;;;;;;5.10;1.00;;;;;;5456159;26;19925;-82
2024/04/18 04:51:41;;;;;;;;;;;5.30;1.00;;;;;;5455833;26;19924;-80
2024/04/18 04:54:24;;;;;;;;;;;5.30;1.00;;;;;;5454341;26;19992;-78
2024/04/18 04:56:53;;;;;;;;;;;5.40;1.00;;;;;;5454172;26;19952;-78
2024/04/18 04:59:19;;;;;;;;;;;5.40;1.00;;;;;;5455117;26;19924;-78
2024/04/18 05:01:45;;;;;;;;;;;5.50;1.00;;;;;;5445460;26;19938;-76
2024/04/18 05:04:12;;;;;;;;;;;5.50;1.00;;;;;;5459253;26;19957;-78
2024/04/18 05:06:41;;;;;;;;;;;5.60;1.00;;;;;;5450623;26;19924;-78
2024/04/18 05:09:08;;;;;;;;;;;5.80;1.00;;;;;;5457964;26;19939;-80
2024/04/18 05:11:35;;;;;;;;;;;5.80;1.00;;;;;;5460024;26;19939;-79
2024/04/18 05:14:02;;;;;;;;;;;6.00;1.00;;;;;;5459051;26;19925;-83
2024/04/18 05:16:27;;;;;;;;;;;6.00;1.00;;;;;;5453914;26;19936;-79
2024/04/18 05:18:53;;;;;;;;;;;6.10;1.00;;;;;;5460917;26;19993;-82
2024/04/18 05:21:18;;;;;;;;;;;6.20;1.00;;;;;;5456391;26;19934;-82
2024/04/18 05:23:47;;;;;;;;;;;6.20;1.00;;;;;;5477214;26;19935;-82
2024/04/18 05:26:17;;;;;;;;;;;6.40;1.00;;;;;;5458159;26;19934;-82
2024/04/18 05:31:27;;;;;;;;;;;6.60;1.00;;;;;;5440943;26;19931;-82
2024/04/18 05:33:53;;;;;;;;;;;6.70;1.00;;;;;;5455158;26;19928;-82
2024/04/18 05:36:19;;;;;;;;;;;6.80;1.00;;;;;;5467057;26;20264;-82
2024/04/18 05:38:44;;;;;;;;;;;7.10;1.00;;;;;;5464680;26;19986;-82
2024/04/18 05:41:12;;;;;;;;;;;7.10;1.00;;;;;;5464984;26;19932;-82
2024/04/18 05:43:42;;;;;;;;;;;7.40;1.00;;;;;;5458502;26;19925;-79
2024/04/18 05:46:07;;;;;;;;;;;7.40;1.00;;;;;;5473845;26;19969;-80
2024/04/18 05:48:33;;;;;;;;;;;7.60;1.00;;;;;;5477975;26;20367;-79
2024/04/18 05:50:59;;;;;;;;;;;7.80;1.00;;;;;;5446941;26;19924;-79
2024/04/18 05:53:29;;;;;;;;;;;7.90;1.00;;;;;;5460914;26;19932;-79
2024/04/18 05:55:55;;;;;;;;;;;8.00;1.00;;;;;;5453159;26;19924;-79
2024/04/18 05:58:21;;;;;;;;;;;8.00;1.00;;;;;;5471383;26;19934;-79
2024/04/18 06:00:46;;;;;;;;;;;8.10;1.00;;;;;;5459944;26;19931;-79
2024/04/18 06:03:12;;;;;;;;;;;8.30;1.00;;;;;;5449224;26;19968;-79
2024/04/18 06:05:38;;;;;;;;;;;8.40;1.00;;;;;;5448071;26;19936;-79
2024/04/18 06:08:03;;;;;;;;;;;8.60;1.00;;;;;;5468491;26;19932;-79
2024/04/18 06:10:29;;;;;;;;;;;8.60;1.00;;;;;;5453042;26;19925;-79
2024/04/18 06:12:55;;;;;;;;;;;8.70;1.00;;;;;;5430479;26;19964;-77
2024/04/18 06:15:20;;;;;;;;;;;9.00;1.00;;;;;;5452885;26;19966;-76
2024/04/18 06:17:48;;;;;;;;;;;9.30;1.00;;;;;;5453563;26;19925;-76
2024/04/18 06:20:13;;;;;;;;;;;9.30;1.00;;;;;;5454092;26;19931;-75
2024/04/18 06:22:41;;;;;;;;;;;9.50;1.00;;;;;;5468442;26;19924;-76
2024/04/18 06:25:07;;;;;;;;;;;9.80;1.00;;;;;;5454157;26;19931;-76
2024/04/18 06:27:33;;;;;;;;;;;9.90;1.00;;;;;;5488009;26;19930;-79
2024/04/18 06:29:59;;;;;;;;;;;9.80;1.00;;;;;;5458886;26;19934;-79
2024/04/18 06:32:25;;;;;;;;;;;9.80;1.00;;;;;;5464610;26;20001;-79
2024/04/18 06:34:59;;;;;;;;;;;9.90;1.00;;;;;;5443360;26;19932;-79
2024/04/18 06:37:25;;;;;;;;;;;10.00;1.00;;;;;;5438022;26;19932;-79
2024/04/18 06:39:51;;;;;;;;;;;10.00;1.00;;;;;;5454029;26;19924;-79
2024/04/18 06:42:17;;;;;;;;;;;10.20;1.00;;;;;;5453912;26;19952;-79
2024/04/18 06:44:43;;;;;;;;;;;10.20;1.00;;;;;;5453927;26;19974;-79
2024/04/18 06:47:08;;;;;;;;;;;10.30;1.00;;;;;;5453705;26;19925;-80
2024/04/18 06:49:34;;;;;;;;;;;10.20;1.00;;;;;;5453648;26;19924;-80
2024/04/18 06:51:59;;;;;;;;;;;10.20;1.00;;;;;;5479959;26;19931;-80
2024/04/18 06:54:30;;;;;;;;;;;10.30;1.00;;;;;;5438186;26;19925;-80
2024/04/18 06:57:05;;;;;;;;;;;10.30;1.00;;;;;;5453765;26;19931;-79
2024/04/18 06:59:36;;;;;;;;;;;10.40;1.00;;;;;;5453210;26;19931;-80
2024/04/18 07:02:01;;;;;;;;;;;10.50;1.00;;;;;;5453253;26;19993;-78
2024/04/18 07:04:27;;;;;;;;;;;10.60;1.00;;;;;;5453571;26;19936;-79
2024/04/18 07:06:53;;;;;;;;;;;10.70;1.00;;;;;;5453606;26;19925;-79
2024/04/18 07:09:19;;;;;;;;;;;10.70;1.00;;;;;;5452976;26;19924;-79
2024/04/18 07:11:44;;;;;;;;;;;10.70;1.00;;;;;;5434047;26;20252;-79
2024/04/18 07:14:10;;;;;;;;;;;10.70;1.00;;;;;;5453387;26;20001;-79
2024/04/18 07:16:36;;;;;;;;;;;10.60;1.00;;;;;;5455205;26;19924;-78
2024/04/18 07:19:01;;;;;;;;;;;10.40;1.00;;;;;;5453817;26;19925;-78
2024/04/18 07:21:30;;;;;;;;;;;10.40;1.00;;;;;;5443916;26;19931;-78
2024/04/18 07:24:06;;;;;;;;;;;10.30;1.00;;;;;;5474199;26;19995;-78
2024/04/18 07:26:36;;;;;;;;;;;10.20;1.00;;;;;;5471517;26;19924;-78
2024/04/18 07:29:03;;;;;;;;;;;10.20;1.00;;;;;;5428695;26;19924;-78
2024/04/18 07:31:29;;;;;;;;;;;10.20;1.00;;;;;;5453090;26;19936;-78
2024/04/18 07:33:55;;;;;;;;;;;10.20;1.00;;;;;;5445935;26;20019;-78
2024/04/18 07:36:21;;;;;;;;;;;10.10;1.00;;;;;;5483842;26;19932;-78
2024/04/18 07:38:50;;;;;;;;;;;10.10;1.00;;;;;;5485527;26;19936;-78
2024/04/18 07:41:17;;;;;;;;;;;10.20;1.00;;;;;;5433903;26;19931;-78
2024/04/18 07:43:43;;;;;;;;;;;10.30;1.00;;;;;;5448907;26;20356;-78
2024/04/18 07:46:12;;;;;;;;;;;10.30;1.00;;;;;;5473612;26;19961;-78
2024/04/18 07:49:00;;;;;;;;;;;10.20;1.00;;;;;;5473761;26;19966;-78
2024/04/18 07:51:32;;;;;;;;;;;10.10;1.00;;;;;;5441488;26;19925;-78
2024/04/18 07:53:58;;;;;;;;;;;9.90;1.00;;;;;;5487951;26;19961;-78
2024/04/18 07:56:24;;;;;;;;;;;9.90;1.00;;;;;;5474114;26;20118;-78
2024/04/18 07:59:00;;;;;;;;;;;9.80;1.00;;;;;;5457002;26;19925;-78
2024/04/18 08:01:30;;;;;;;;;;;9.80;1.00;;;;;;5459119;26;19947;-79
2024/04/18 08:03:56;;;;;;;;;;;9.80;1.00;;;;;;5441498;26;20376;-78
2024/04/18 08:06:24;;;;;;;;;;;9.80;1.00;;;;;;5456271;26;19924;-78
2024/04/18 08:08:49;;;;;;;;;;;9.70;1.00;;;;;;5456777;26;19925;-78
2024/04/18 08:11:18;;;;;;;;;;;9.70;1.00;;;;;;5456675;26;19924;-78
2024/04/18 08:13:43;;;;;;;;;;;9.90;1.00;;;;;;5454622;26;19924;-78
2024/04/18 08:16:09;;;;;;;;;;;9.90;1.00;;;;;;5456782;26;19925;-78
2024/04/18 08:18:36;;;;;;;;;;;10.20;1.00;;;;;;5456553;26;19924;-79
2024/04/18 08:21:04;;;;;;;;;;;10.30;1.00;;;;;;5466060;26;19925;-78
2024/04/18 08:23:30;;;;;;;;;;;10.40;1.00;;;;;;5453420;26;19931;-79
2024/04/18 08:26:00;;;;;;;;;;;10.60;1.00;;;;;;5480127;26;19951;-78
2024/04/18 08:28:30;;;;;;;;;;;10.80;1.00;;;;;;5457782;26;20267;-75
2024/04/18 08:30:55;;;;;;;;;;;10.90;1.00;;;;;;5453532;26;19923;-75
2024/04/18 08:33:21;;;;;;;;;;;11.00;1.00;;;;;;5481668;26;19931;-75
2024/04/18 08:35:47;;;;;;;;;;;11.00;1.00;;;;;;5455405;26;19998;-75
2024/04/18 08:38:12;;;;;;;;;;;10.90;1.00;;;;;;5455202;26;20259;-75
2024/04/18 08:40:50;;;;;;;;;;;10.90;1.00;;;;;;5456318;26;19924;-75
2024/04/18 08:43:18;;;;;;;;;;;11.10;1.00;;;;;;5442335;26;19924;-74
2024/04/18 08:45:48;;;;;;;;;;;11.30;1.00;;;;;;5455374;26;19924;-75
2024/04/18 08:48:18;;;;;;;;;;;11.60;1.00;;;;;;5467758;26;19924;-75
2024/04/18 08:50:46;;;;;;;;;;;11.60;1.00;;;;;;5462295;26;19933;-74
2024/04/18 08:53:15;;;;;;;;;;;11.90;1.00;;;;;;5454979;26;19924;-74
2024/04/18 08:55:46;;;;;;;;;;;12.00;1.00;;;;;;5442139;26;19936;-74
2024/04/18 08:58:20;;;;;;;;;;;12.00;1.00;;;;;;5458059;26;19933;-79
2024/04/18 09:00:46;;;;;;;;;;;12.10;1.00;;;;;;5461255;26;19993;-78
2024/04/18 09:03:12;;;;;;;;;;;12.20;1.00;;;;;;5456432;26;19931;-79
2024/04/18 09:05:37;;;;;;;;;;;12.20;1.00;;;;;;5448292;26;19932;-78
2024/04/18 09:08:09;;;;;;;;;;;12.20;1.00;;;;;;5440435;26;19932;-79
2024/04/18 09:10:36;;;;;;;;;;;12.30;1.00;;;;;;5448683;26;19993;-78
2024/04/18 09:13:02;;;;;;;;;;;12.70;1.00;;;;;;5436980;26;19925;-75
2024/04/18 09:15:28;;;;;;;;;;;12.70;1.00;;;;;;5446072;26;19925;-75
2024/04/18 09:18:07;;;;;;;;;;;12.60;1.00;;;;;;5452865;26;19953;-76
2024/04/18 09:20:39;;;;;;;;;;;12.70;1.00;;;;;;5446119;26;20378;-75
2024/04/18 09:23:06;;;;;;;;;;;12.80;1.00;;;;;;5445425;26;19966;-75
2024/04/18 09:25:36;;;;;;;;;;;12.70;1.00;;;;;;5454672;26;19931;-75
2024/04/18 09:28:06;;;;;;;;;;;12.90;1.00;;;;;;5454821;26;19924;-79
2024/04/18 09:30:32;;;;;;;;;;;13.00;1.00;;;;;;5455034;26;19928;-79
2024/04/18 09:33:00;;;;;;;;;;;13.30;1.00;;;;;;5453555;26;19924;-79
2024/04/18 09:35:29;;;;;;;;;;;13.50;1.00;;;;;;5458980;26;19929;-79
2024/04/18 09:38:00;;;;;;;;;;;13.80;1.00;;;;;;5454947;26;19956;-79
2024/04/18 09:40:29;;;;;;;;;;;13.90;1.00;;;;;;5454747;26;19925;-79
2024/04/18 09:43:14;;;;;;;;;;;14.10;1.00;;;;;;5462581;26;20447;-79
2024/04/18 09:45:57;;;;;;;;;;;14.10;1.00;;;;;;5453929;26;19995;-75
2024/04/18 09:48:23;;;;;;;;;;;14.10;1.00;;;;;;5457977;26;19928;-75
2024/04/18 09:50:51;;;;;;;;;;;13.90;1.00;;;;;;5454961;26;19993;-75
2024/04/18 09:53:20;;;;;;;;;;;13.80;1.00;;;;;;5452288;26;19924;-75
2024/04/18 09:55:46;;;;;;;;;;;13.60;1.00;;;;;;5426877;26;19933;-75
2024/04/18 09:58:13;;;;;;;;;;;13.70;1.00;;;;;;5465868;26;19925;-77
2024/04/18 10:00:42;;;;;;;;;;;13.50;1.00;;;;;;5454507;26;19925;-78
2024/04/18 10:03:24;;;;;;;;;;;13.40;1.00;;;;;;5445004;26;19932;-78
2024/04/18 10:05:52;;;;;;;;;;;13.30;1.00;;;;;;5454551;26;19993;-78
2024/04/18 10:08:30;;;;;;;;;;;13.10;1.00;;;;;;5443916;26;20444;-79
2024/04/18 10:10:56;;;;;;;;;;;13.00;1.00;;;;;;5448524;26;20360;-78
2024/04/18 10:13:23;;;;;;;;;;;12.80;1.00;;;;;;5451355;26;20022;-76
2024/04/18 10:16:09;;;;;;;;;;;12.90;1.00;;;;;;5442429;26;19932;-75
2024/04/18 10:18:35;;;;;;;;;;;13.10;1.00;;;;;;5440902;26;19924;-76
2024/04/18 10:21:26;;;;;;;;;;;13.40;1.00;;;;;;5445656;26;19932;-75
2024/04/18 10:23:55;;;;;;;;;;;13.60;1.00;;;;;;5450310;26;19933;-75
2024/04/18 10:26:21;;;;;;;;;;;13.50;1.00;;;;;;5468441;26;20288;-75
2024/04/18 10:28:47;;;;;;;;;;;13.50;1.00;;;;;;5448478;26;19971;-78
2024/04/18 10:31:27;;;;;;;;;;;13.20;1.00;;;;;;5465475;26;19936;-79
2024/04/18 10:33:53;;;;;;;;;;;13.10;1.00;;;;;;5454029;26;20284;-78
2024/04/18 10:36:24;;;;;;;;;;;13.30;1.00;;;;;;5454230;26;19924;-79
2024/04/18 10:39:06;;;;;;;;;;;13.30;1.00;;;;;;5457900;26;19948;-78
2024/04/18 10:41:43;;;;;;;;;;;13.50;1.00;;;;;;5455808;26;20304;-78
2024/04/18 10:44:30;;;;;;;;;;;13.70;1.00;;;;;;5454038;26;20272;-78
2024/04/18 10:47:00;;;;;;;;;;;13.80;1.00;;;;;;5444941;26;19932;-78
2024/04/18 10:49:25;;;;;;;;;;;13.50;1.00;;;;;;5453441;26;19956;-78
2024/04/18 10:51:58;;;;;;;;;;;13.40;1.00;;;;;;5454315;26;19931;-78
2024/04/18 10:54:24;;;;;;;;;;;13.20;1.00;;;;;;5447267;26;20289;-78
2024/04/18 10:56:50;;;;;;;;;;;13.20;1.00;;;;;;5442094;26;19932;-78
2024/04/18 10:59:18;;;;;;;;;;;13.30;1.00;;;;;;5447659;26;19933;-78
2024/04/18 11:01:48;;;;;;;;;;;13.40;1.00;;;;;;5453300;26;19936;-78
2024/04/18 11:04:18;;;;;;;;;;;13.50;1.00;;;;;;5453619;26;19924;-78
2024/04/18 11:06:44;;;;;;;;;;;13.90;1.00;;;;;;5483310;26;19924;-79
2024/04/18 11:09:15;;;;;;;;;;;13.80;1.00;;;;;;5466323;26;19931;-78
2024/04/18 11:11:41;;;;;;;;;;;13.80;1.00;;;;;;5439882;26;20011;-78
2024/04/18 11:14:06;;;;;;;;;;;14.30;1.00;;;;;;5449212;26;19934;-75
2024/04/18 11:16:32;;;;;;;;;;;14.30;1.00;;;;;;5461816;26;19925;-75
2024/04/18 11:18:58;;;;;;;;;;;14.60;1.00;;;;;;5456239;26;19924;-75
2024/04/18 11:21:24;;;;;;;;;;;14.80;1.00;;;;;;5460244;26;19933;-75
2024/04/18 11:23:53;;;;;;;;;;;14.90;1.00;;;;;;5443347;26;19973;-75
2024/04/18 11:26:19;;;;;;;;;;;14.90;1.00;;;;;;5441818;26;19924;-75
2024/04/18 11:28:51;;;;;;;;;;;14.80;1.00;;;;;;5456156;26;19932;-75
2024/04/18 11:31:17;;;;;;;;;;;14.70;1.00;;;;;;5460812;26;19924;-75
2024/04/18 11:33:43;;;;;;;;;;;14.60;1.00;;;;;;5458174;26;19966;-74
2024/04/18 11:36:13;;;;;;;;;;;14.80;1.00;;;;;;5466623;26;20263;-75
2024/04/18 11:38:48;;;;;;;;;;;14.80;1.00;;;;;;5471761;26;19924;-75
2024/04/18 11:41:18;;;;;;;;;;;14.80;1.00;;;;;;5456602;26;19931;-75
2024/04/18 11:43:44;;;;;;;;;;;14.90;1.00;;;;;;5455925;26;19932;-75
2024/04/18 11:46:10;;;;;;;;;;;14.90;1.00;;;;;;5453308;26;19932;-75
2024/04/18 11:48:37;;;;;;;;;;;14.80;1.00;;;;;;5450034;26;19931;-75
2024/04/18 11:51:03;;;;;;;;;;;14.80;1.00;;;;;;5430314;26;19955;-75
2024/04/18 11:53:31;;;;;;;;;;;14.60;1.00;;;;;;5436293;26;19924;-76
2024/04/18 11:56:00;;;;;;;;;;;14.10;1.00;;;;;;5443133;26;19968;-75
2024/04/18 11:58:26;;;;;;;;;;;14.10;1.00;;;;;;5450969;26;19950;-75
2024/04/18 12:00:51;;;;;;;;;;;14.30;1.00;;;;;;5452555;26;19925;-78
2024/04/18 12:03:17;;;;;;;;;;;14.50;1.00;;;;;;5436503;26;19930;-78
2024/04/18 12:05:48;;;;;;;;;;;14.70;1.00;;;;;;5455955;26;19924;-78
2024/04/18 12:08:30;;;;;;;;;;;15.00;1.00;;;;;;5456185;26;20368;-78
2024/04/18 12:11:06;;;;;;;;;;;15.20;1.00;;;;;;5448525;26;19957;-79
2024/04/18 12:13:32;;;;;;;;;;;15.40;1.00;;;;;;5456511;26;19970;-78
2024/04/18 12:16:00;;;;;;;;;;;15.50;1.00;;;;;;5449669;26;19926;-78
2024/04/18 12:18:26;;;;;;;;;;;15.40;1.00;;;;;;5455997;26;20372;-78
2024/04/18 12:21:00;;;;;;;;;;;15.40;1.00;;;;;;5455791;26;19931;-79
2024/04/18 12:24:00;;;;;;;;;;;15.40;1.00;;;;;;5456120;26;19933;-80
2024/04/18 12:26:26;;;;;;;;;;;15.30;1.00;;;;;;5455604;26;20285;-78
2024/04/18 12:28:52;;;;;;;;;;;15.10;1.00;;;;;;5456410;26;19924;-78
2024/04/18 12:31:17;;;;;;;;;;;14.90;1.00;;;;;;5455879;26;19924;-78
2024/04/18 12:33:54;;;;;;;;;;;15.00;1.00;;;;;;5439942;26;20605;-78
2024/04/18 12:36:24;;;;;;;;;;;15.10;1.00;;;;;;5452550;26;19932;-78
2024/04/18 12:39:00;;;;;;;;;;;15.10;1.00;;;;;;5461244;26;19931;-79
2024/04/18 12:41:26;;;;;;;;;;;15.30;1.00;;;;;;5472531;26;19951;-78
2024/04/18 12:43:51;;;;;;;;;;;15.10;1.00;;;;;;5464751;26;19931;-79
2024/04/18 12:46:18;;;;;;;;;;;15.70;1.00;;;;;;5487065;26;19931;-75
2024/04/18 12:48:48;;;;;;;;;;;15.70;1.00;;;;;;5468674;26;19932;-76
2024/04/18 12:51:14;;;;;;;;;;;15.80;1.00;;;;;;5450236;26;19932;-76
2024/04/18 12:53:41;;;;;;;;;;;15.40;1.00;;;;;;5466968;26;19924;-75
2024/04/18 12:56:08;;;;;;;;;;;16.40;1.00;;;;;;5447357;26;19924;-75
2024/04/18 12:58:34;;;;;;;;;;;16.40;1.00;;;;;;5473930;26;19966;-75
2024/04/18 13:01:00;;;;;;;;;;;16.50;1.00;;;;;;5472041;26;19975;-75
2024/04/18 13:03:26;;;;;;;;;;;16.60;1.00;;;;;;5456346;26;19924;-75
2024/04/18 13:05:51;;;;;;;;;;;16.60;1.00;;;;;;5448748;26;19925;-75
2024/04/18 13:08:17;;;;;;;;;;;16.10;1.00;;;;;;5440150;26;19932;-74
2024/04/18 13:10:48;;;;;;;;;;;15.90;1.00;;;;;;5464800;26;19931;-73
2024/04/18 13:13:14;;;;;;;;;;;15.30;1.00;;;;;;5456857;26;19974;-74
2024/04/18 13:15:40;;;;;;;;;;;15.10;1.00;;;;;;5455548;26;19925;-79
2024/04/18 13:18:06;;;;;;;;;;;15.00;1.00;;;;;;5458760;26;19931;-78
2024/04/18 13:20:36;;;;;;;;;;;14.80;1.00;;;;;;5459729;26;20581;-78
2024/04/18 13:23:02;;;;;;;;;;;14.80;1.00;;;;;;5456870;26;19928;-77
2024/04/18 13:25:27;;;;;;;;;;;14.70;1.00;;;;;;5467641;26;19961;-88
2024/04/18 13:27:53;;;;;;;;;;;14.70;1.00;;;;;;5457781;26;19924;-77
2024/04/18 13:30:19;;;;;;;;;;;14.60;1.00;;;;;;5455464;26;19924;-76
2024/04/18 13:32:44;;;;;;;;;;;14.60;1.00;;;;;;5479302;26;19925;-76
2024/04/18 13:35:10;;;;;;;;;;;14.50;1.00;;;;;;5461072;26;19924;-79
2024/04/18 13:37:36;;;;;;;;;;;14.40;1.00;;;;;;5449223;26;20316;-74
2024/04/18 13:40:06;;;;;;;;;;;14.30;1.00;;;;;;5491205;26;19930;-75
2024/04/18 13:42:32;;;;;;;;;;;14.10;1.00;;;;;;5482165;26;19931;-75
2024/04/18 13:44:57;;;;;;;;;;;14.00;1.00;;;;;;5473699;26;19936;-74
2024/04/18 13:47:24;;;;;;;;;;;13.90;1.00;;;;;;5462253;26;19928;-79
2024/04/18 13:49:49;;;;;;;;;;;14.60;1.00;;;;;;5463579;26;20001;-80
2024/04/18 13:52:15;;;;;;;;;;;14.90;1.00;;;;;;5461515;26;19924;-79
2024/04/18 13:54:41;;;;;;;;;;;15.20;1.00;;;;;;5459329;26;19924;-80
2024/04/18 13:57:07;;;;;;;;;;;15.30;1.00;;;;;;5459681;26;19932;-78
2024/04/18 13:59:33;;;;;;;;;;;15.50;1.00;;;;;;5482546;26;19924;-80
2024/04/18 14:02:08;;;;;;;;;;;15.50;1.00;;;;;;5468049;26;19992;-82
2024/04/18 14:04:34;;;;;;;;;;;15.60;1.00;;;;;;5447674;26;19924;-80
2024/04/18 14:07:00;;;;;;;;;;;15.70;1.00;;;;;;5459877;26;20360;-79
2024/04/18 14:09:26;;;;;;;;;;;15.60;1.00;;;;;;5454879;26;19924;-79
2024/04/18 14:11:55;;;;;;;;;;;15.60;1.00;;;;;;5454453;26;19931;-79
2024/04/18 14:14:30;;;;;;;;;;;15.90;1.00;;;;;;5454516;26;19924;-80
2024/04/18 14:19:41;;;;;;;;;;;16.00;1.00;;;;;;5449489;26;19930;-81
2024/04/18 14:22:06;;;;;;;;;;;16.00;1.00;;;;;;5457998;26;19924;-78
2024/04/18 14:24:32;;;;;;;;;;;16.10;1.00;;;;;;5464264;26;19935;-77
2024/04/18 14:26:57;;;;;;;;;;;16.40;1.00;;;;;;5472237;26;19924;-78
2024/04/18 14:29:23;;;;;;;;;;;16.50;1.00;;;;;;5465412;26;19924;-77
2024/04/18 14:31:49;;;;;;;;;;;16.70;1.00;;;;;;5457991;26;19924;-81
2024/04/18 14:37:39;;;;;;;;;;;17.10;1.00;;;;;;5456100;26;19932;-81
2024/04/18 14:40:30;;;;;;;;;;;17.40;1.00;;;;;;5469788;26;19992;-80
2024/04/18 14:42:55;;;;;;;;;;;17.70;1.00;;;;;;5457684;26;19961;-80
2024/04/18 14:45:21;;;;;;;;;;;17.50;1.00;;;;;;5462929;26;20263;-80
2024/04/18 14:47:46;;;;;;;;;;;17.40;1.00;;;;;;5449901;26;19932;-75
2024/04/18 14:50:12;;;;;;;;;;;17.00;1.00;;;;;;5443306;26;19924;-75